sensor_id;sensor_type;location;lat;lon;timestamp;P1;durP1;ratioP1;P2;durP2;ratioP2
9288;SDS011;4683;50.864;12.086;2023-07-24T00:01:05;4.13;;;3.67;;
9288;SDS011;4683;50.864;12.086;2023-07-24T00:03:48;5.07;;;3.63;;
9288;SDS011;4683;50.864;12.086;2023-07-24T00:06:20;4.30;;;3.90;;
9288;SDS011;4683;50.864;12.086;2023-07-24T00:08:48;7.20;;;3.90;;
9288;SDS011;4683;50.864;12.086;2023-07-24T00:11:21;4.47;;;3.60;;
9288;SDS011;4683;50.864;12.086;2023-07-24T00:13:51;4.33;;;3.93;;
9288;SDS011;4683;50.864;12.086;2023-07-24T00:16:19;3.97;;;3.37;;
9288;SDS011;4683;50.864;12.086;2023-07-24T00:18:48;5.63;;;3.37;;
9288;SDS011;4683;50.864;12.086;2023-07-24T00:21:16;4.27;;;3.87;;
9288;SDS011;4683;50.864;12.086;2023-07-24T00:23:45;3.87;;;3.53;;
9288;SDS011;4683;50.864;12.086;2023-07-24T00:26:13;4.50;;;4.00;;
9288;SDS011;4683;50.864;12.086;2023-07-24T00:28:45;4.07;;;3.67;;
9288;SDS011;4683;50.864;12.086;2023-07-24T00:31:15;7.43;;;3.90;;
9288;SDS011;4683;50.864;12.086;2023-07-24T00:33:43;5.67;;;3.90;;
9288;SDS011;4683;50.864;12.086;2023-07-24T00:36:15;4.17;;;3.77;;
9288;SDS011;4683;50.864;12.086;2023-07-24T00:38:43;4.20;;;3.80;;
9288;SDS011;4683;50.864;12.086;2023-07-24T00:41:15;4.57;;;3.40;;
9288;SDS011;4683;50.864;12.086;2023-07-24T00:43:45;4.40;;;4.00;;
9288;SDS011;4683;50.864;12.086;2023-07-24T00:46:14;5.97;;;3.93;;
9288;SDS011;4683;50.864;12.086;2023-07-24T00:48:43;5.10;;;3.60;;
9288;SDS011;4683;50.864;12.086;2023-07-24T00:51:11;4.30;;;3.60;;
9288;SDS011;4683;50.864;12.086;2023-07-24T00:53:39;5.17;;;4.10;;
9288;SDS011;4683;50.864;12.086;2023-07-24T00:56:08;4.37;;;3.77;;
9288;SDS011;4683;50.864;12.086;2023-07-24T00:58:37;4.40;;;3.83;;
9288;SDS011;4683;50.864;12.086;2023-07-24T01:01:08;4.47;;;3.67;;
9288;SDS011;4683;50.864;12.086;2023-07-24T01:03:42;4.10;;;3.70;;
9288;SDS011;4683;50.864;12.086;2023-07-24T01:06:10;3.90;;;3.60;;
9288;SDS011;4683;50.864;12.086;2023-07-24T01:08:41;3.87;;;3.47;;
9288;SDS011;4683;50.864;12.086;2023-07-24T01:11:10;3.37;;;3.10;;
9288;SDS011;4683;50.864;12.086;2023-07-24T01:13:47;4.67;;;3.40;;
9288;SDS011;4683;50.864;12.086;2023-07-24T01:16:25;4.77;;;3.90;;
9288;SDS011;4683;50.864;12.086;2023-07-24T01:19:01;4.83;;;4.00;;
9288;SDS011;4683;50.864;12.086;2023-07-24T01:21:41;4.00;;;3.70;;
9288;SDS011;4683;50.864;12.086;2023-07-24T01:24:29;6.37;;;3.73;;
9288;SDS011;4683;50.864;12.086;2023-07-24T01:27:06;4.57;;;3.50;;
9288;SDS011;4683;50.864;12.086;2023-07-24T01:29:35;3.77;;;3.43;;
9288;SDS011;4683;50.864;12.086;2023-07-24T01:32:03;4.40;;;3.97;;
9288;SDS011;4683;50.864;12.086;2023-07-24T01:34:32;3.90;;;3.53;;
9288;SDS011;4683;50.864;12.086;2023-07-24T01:37:00;4.40;;;3.80;;
9288;SDS011;4683;50.864;12.086;2023-07-24T01:39:32;4.43;;;3.77;;
9288;SDS011;4683;50.864;12.086;2023-07-24T01:42:01;4.20;;;3.80;;
9288;SDS011;4683;50.864;12.086;2023-07-24T01:44:32;4.00;;;3.70;;
9288;SDS011;4683;50.864;12.086;2023-07-24T01:47:01;4.47;;;4.00;;
9288;SDS011;4683;50.864;12.086;2023-07-24T01:49:29;4.30;;;3.80;;
9288;SDS011;4683;50.864;12.086;2023-07-24T01:51:58;4.17;;;3.77;;
9288;SDS011;4683;50.864;12.086;2023-07-24T01:54:26;4.40;;;3.60;;
9288;SDS011;4683;50.864;12.086;2023-07-24T01:56:55;5.43;;;3.97;;
9288;SDS011;4683;50.864;12.086;2023-07-24T01:59:24;4.20;;;3.87;;
9288;SDS011;4683;50.864;12.086;2023-07-24T02:01:54;4.97;;;4.03;;
9288;SDS011;4683;50.864;12.086;2023-07-24T02:04:22;4.10;;;3.70;;
9288;SDS011;4683;50.864;12.086;2023-07-24T02:06:50;4.30;;;3.90;;
9288;SDS011;4683;50.864;12.086;2023-07-24T02:09:19;4.50;;;4.10;;
9288;SDS011;4683;50.864;12.086;2023-07-24T02:15:55;4.47;;;3.73;;
9288;SDS011;4683;50.864;12.086;2023-07-24T02:18:25;4.30;;;3.80;;
9288;SDS011;4683;50.864;12.086;2023-07-24T02:20:53;4.93;;;3.80;;
9288;SDS011;4683;50.864;12.086;2023-07-24T02:23:23;4.70;;;3.80;;
9288;SDS011;4683;50.864;12.086;2023-07-24T02:25:51;5.03;;;3.80;;
9288;SDS011;4683;50.864;12.086;2023-07-24T02:28:20;4.03;;;3.63;;
9288;SDS011;4683;50.864;12.086;2023-07-24T02:30:48;4.50;;;4.00;;
9288;SDS011;4683;50.864;12.086;2023-07-24T02:33:20;4.47;;;4.07;;
9288;SDS011;4683;50.864;12.086;2023-07-24T02:35:53;4.13;;;3.73;;
9288;SDS011;4683;50.864;12.086;2023-07-24T02:38:22;4.30;;;4.00;;
9288;SDS011;4683;50.864;12.086;2023-07-24T02:40:51;4.83;;;4.43;;
9288;SDS011;4683;50.864;12.086;2023-07-24T02:43:19;4.37;;;3.97;;
9288;SDS011;4683;50.864;12.086;2023-07-24T02:45:48;3.77;;;3.47;;
9288;SDS011;4683;50.864;12.086;2023-07-24T02:48:19;4.07;;;3.77;;
9288;SDS011;4683;50.864;12.086;2023-07-24T02:50:48;5.40;;;4.17;;
9288;SDS011;4683;50.864;12.086;2023-07-24T02:53:18;4.50;;;4.10;;
9288;SDS011;4683;50.864;12.086;2023-07-24T02:55:49;5.80;;;4.23;;
9288;SDS011;4683;50.864;12.086;2023-07-24T02:58:18;4.20;;;3.80;;
9288;SDS011;4683;50.864;12.086;2023-07-24T03:00:47;4.27;;;3.87;;
9288;SDS011;4683;50.864;12.086;2023-07-24T03:03:17;4.40;;;4.00;;
9288;SDS011;4683;50.864;12.086;2023-07-24T03:05:48;4.50;;;4.10;;
9288;SDS011;4683;50.864;12.086;2023-07-24T03:08:19;4.40;;;4.00;;
9288;SDS011;4683;50.864;12.086;2023-07-24T03:10:47;4.53;;;4.10;;
9288;SDS011;4683;50.864;12.086;2023-07-24T03:13:21;4.80;;;3.90;;
9288;SDS011;4683;50.864;12.086;2023-07-24T03:15:53;4.63;;;4.23;;
9288;SDS011;4683;50.864;12.086;2023-07-24T03:18:24;4.50;;;4.10;;
9288;SDS011;4683;50.864;12.086;2023-07-24T03:20:53;6.63;;;4.07;;
9288;SDS011;4683;50.864;12.086;2023-07-24T03:23:27;5.50;;;4.23;;
9288;SDS011;4683;50.864;12.086;2023-07-24T03:25:56;4.60;;;4.20;;
9288;SDS011;4683;50.864;12.086;2023-07-24T03:28:29;4.33;;;3.93;;
9288;SDS011;4683;50.864;12.086;2023-07-24T03:30:58;4.93;;;4.43;;
9288;SDS011;4683;50.864;12.086;2023-07-24T03:33:26;4.60;;;4.10;;
9288;SDS011;4683;50.864;12.086;2023-07-24T03:35:56;5.07;;;4.40;;
9288;SDS011;4683;50.864;12.086;2023-07-24T03:38:27;4.57;;;4.13;;
9288;SDS011;4683;50.864;12.086;2023-07-24T03:40:56;4.93;;;4.40;;
9288;SDS011;4683;50.864;12.086;2023-07-24T03:43:24;4.53;;;4.13;;
9288;SDS011;4683;50.864;12.086;2023-07-24T03:45:53;5.23;;;4.73;;
9288;SDS011;4683;50.864;12.086;2023-07-24T03:48:22;4.60;;;4.20;;
9288;SDS011;4683;50.864;12.086;2023-07-24T03:50:57;4.23;;;3.90;;
9288;SDS011;4683;50.864;12.086;2023-07-24T03:53:31;4.83;;;4.43;;
9288;SDS011;4683;50.864;12.086;2023-07-24T03:56:01;5.47;;;4.50;;
9288;SDS011;4683;50.864;12.086;2023-07-24T03:58:30;4.93;;;4.43;;
9288;SDS011;4683;50.864;12.086;2023-07-24T04:00:58;4.77;;;4.17;;
9288;SDS011;4683;50.864;12.086;2023-07-24T04:03:27;5.53;;;4.37;;
9288;SDS011;4683;50.864;12.086;2023-07-24T04:05:56;4.63;;;4.23;;
9288;SDS011;4683;50.864;12.086;2023-07-24T04:08:24;5.33;;;4.70;;
9288;SDS011;4683;50.864;12.086;2023-07-24T04:10:54;4.97;;;4.50;;
9288;SDS011;4683;50.864;12.086;2023-07-24T04:13:23;5.90;;;4.80;;
9288;SDS011;4683;50.864;12.086;2023-07-24T04:15:51;5.63;;;4.83;;
9288;SDS011;4683;50.864;12.086;2023-07-24T04:18:20;5.30;;;4.80;;
9288;SDS011;4683;50.864;12.086;2023-07-24T04:20:52;5.40;;;4.50;;
9288;SDS011;4683;50.864;12.086;2023-07-24T04:23:22;5.20;;;4.70;;
9288;SDS011;4683;50.864;12.086;2023-07-24T04:25:51;5.27;;;4.80;;
9288;SDS011;4683;50.864;12.086;2023-07-24T04:28:21;5.13;;;4.63;;
9288;SDS011;4683;50.864;12.086;2023-07-24T04:30:59;5.83;;;5.00;;
9288;SDS011;4683;50.864;12.086;2023-07-24T04:37:34;5.70;;;5.10;;
9288;SDS011;4683;50.864;12.086;2023-07-24T04:40:05;5.50;;;4.63;;
9288;SDS011;4683;50.864;12.086;2023-07-24T04:42:35;5.13;;;4.70;;
9288;SDS011;4683;50.864;12.086;2023-07-24T04:45:23;5.80;;;5.20;;
9288;SDS011;4683;50.864;12.086;2023-07-24T04:47:52;5.33;;;4.80;;
9288;SDS011;4683;50.864;12.086;2023-07-24T04:50:22;5.73;;;5.20;;
9288;SDS011;4683;50.864;12.086;2023-07-24T04:52:51;5.37;;;4.80;;
9288;SDS011;4683;50.864;12.086;2023-07-24T04:55:22;5.27;;;4.77;;
9288;SDS011;4683;50.864;12.086;2023-07-24T04:57:52;5.37;;;4.87;;
9288;SDS011;4683;50.864;12.086;2023-07-24T05:00:23;5.80;;;5.30;;
9288;SDS011;4683;50.864;12.086;2023-07-24T05:03:04;6.13;;;5.53;;
9288;SDS011;4683;50.864;12.086;2023-07-24T05:05:39;6.03;;;5.43;;
9288;SDS011;4683;50.864;12.086;2023-07-24T05:08:08;5.60;;;5.10;;
9288;SDS011;4683;50.864;12.086;2023-07-24T05:10:36;5.63;;;5.13;;
9288;SDS011;4683;50.864;12.086;2023-07-24T05:13:05;6.53;;;5.77;;
9288;SDS011;4683;50.864;12.086;2023-07-24T05:15:35;5.87;;;5.27;;
9288;SDS011;4683;50.864;12.086;2023-07-24T05:18:04;5.27;;;4.77;;
9288;SDS011;4683;50.864;12.086;2023-07-24T05:20:34;5.40;;;4.90;;
9288;SDS011;4683;50.864;12.086;2023-07-24T05:23:02;6.13;;;5.53;;
9288;SDS011;4683;50.864;12.086;2023-07-24T05:25:43;4.83;;;4.33;;
9288;SDS011;4683;50.864;12.086;2023-07-24T05:28:13;5.63;;;5.03;;
9288;SDS011;4683;50.864;12.086;2023-07-24T05:30:43;5.70;;;5.03;;
9288;SDS011;4683;50.864;12.086;2023-07-24T05:33:13;7.00;;;5.03;;
9288;SDS011;4683;50.864;12.086;2023-07-24T05:35:41;6.20;;;5.60;;
9288;SDS011;4683;50.864;12.086;2023-07-24T05:38:11;6.10;;;5.50;;
9288;SDS011;4683;50.864;12.086;2023-07-24T05:40:40;5.97;;;5.37;;
9288;SDS011;4683;50.864;12.086;2023-07-24T05:43:08;5.90;;;5.27;;
9288;SDS011;4683;50.864;12.086;2023-07-24T05:45:37;5.73;;;5.20;;
9288;SDS011;4683;50.864;12.086;2023-07-24T05:48:10;6.30;;;5.30;;
9288;SDS011;4683;50.864;12.086;2023-07-24T05:50:38;5.50;;;5.00;;
9288;SDS011;4683;50.864;12.086;2023-07-24T05:53:08;6.67;;;4.87;;
9288;SDS011;4683;50.864;12.086;2023-07-24T05:55:36;5.73;;;5.23;;
9288;SDS011;4683;50.864;12.086;2023-07-24T05:58:05;5.53;;;5.03;;
9288;SDS011;4683;50.864;12.086;2023-07-24T06:00:34;5.87;;;5.30;;
9288;SDS011;4683;50.864;12.086;2023-07-24T06:03:03;5.97;;;5.37;;
9288;SDS011;4683;50.864;12.086;2023-07-24T06:05:34;6.93;;;5.53;;
9288;SDS011;4683;50.864;12.086;2023-07-24T06:08:02;6.37;;;5.20;;
9288;SDS011;4683;50.864;12.086;2023-07-24T06:10:32;5.77;;;5.27;;
9288;SDS011;4683;50.864;12.086;2023-07-24T06:13:01;5.27;;;4.77;;
9288;SDS011;4683;50.864;12.086;2023-07-24T06:15:32;6.63;;;5.33;;
9288;SDS011;4683;50.864;12.086;2023-07-24T06:18:00;5.90;;;5.40;;
9288;SDS011;4683;50.864;12.086;2023-07-24T06:20:30;5.63;;;5.13;;
9288;SDS011;4683;50.864;12.086;2023-07-24T06:23:01;8.50;;;5.60;;
9288;SDS011;4683;50.864;12.086;2023-07-24T06:25:30;5.70;;;5.07;;
9288;SDS011;4683;50.864;12.086;2023-07-24T06:27:59;6.00;;;5.37;;
9288;SDS011;4683;50.864;12.086;2023-07-24T06:30:33;5.67;;;5.07;;
9288;SDS011;4683;50.864;12.086;2023-07-24T06:33:02;6.53;;;5.77;;
9288;SDS011;4683;50.864;12.086;2023-07-24T06:35:30;7.97;;;4.87;;
9288;SDS011;4683;50.864;12.086;2023-07-24T06:38:05;6.83;;;5.27;;
9288;SDS011;4683;50.864;12.086;2023-07-24T06:40:36;5.70;;;5.20;;
9288;SDS011;4683;50.864;12.086;2023-07-24T06:43:09;7.47;;;6.07;;
9288;SDS011;4683;50.864;12.086;2023-07-24T06:45:38;6.63;;;6.00;;
9288;SDS011;4683;50.864;12.086;2023-07-24T06:48:08;6.40;;;5.23;;
9288;SDS011;4683;50.864;12.086;2023-07-24T06:50:38;6.60;;;5.90;;
9288;SDS011;4683;50.864;12.086;2023-07-24T06:53:12;5.57;;;4.97;;
9288;SDS011;4683;50.864;12.086;2023-07-24T06:55:41;6.50;;;5.90;;
9288;SDS011;4683;50.864;12.086;2023-07-24T06:58:10;6.20;;;5.60;;
9288;SDS011;4683;50.864;12.086;2023-07-24T07:00:39;5.90;;;5.40;;
9288;SDS011;4683;50.864;12.086;2023-07-24T07:03:08;5.53;;;5.03;;
9288;SDS011;4683;50.864;12.086;2023-07-24T07:05:36;6.33;;;5.67;;
9288;SDS011;4683;50.864;12.086;2023-07-24T07:08:07;6.90;;;6.13;;
9288;SDS011;4683;50.864;12.086;2023-07-24T07:10:37;6.43;;;5.80;;
9288;SDS011;4683;50.864;12.086;2023-07-24T07:13:07;6.63;;;6.03;;
9288;SDS011;4683;50.864;12.086;2023-07-24T07:15:36;6.03;;;5.53;;
9288;SDS011;4683;50.864;12.086;2023-07-24T07:18:06;6.60;;;6.00;;
9288;SDS011;4683;50.864;12.086;2023-07-24T07:20:36;7.00;;;5.57;;
9288;SDS011;4683;50.864;12.086;2023-07-24T07:23:06;6.23;;;5.63;;
9288;SDS011;4683;50.864;12.086;2023-07-24T07:25:34;5.53;;;4.97;;
9288;SDS011;4683;50.864;12.086;2023-07-24T07:28:05;6.30;;;5.70;;
9288;SDS011;4683;50.864;12.086;2023-07-24T07:30:36;7.27;;;6.57;;
9288;SDS011;4683;50.864;12.086;2023-07-24T07:33:06;6.50;;;5.90;;
9288;SDS011;4683;50.864;12.086;2023-07-24T07:35:35;7.13;;;6.43;;
9288;SDS011;4683;50.864;12.086;2023-07-24T07:38:04;7.27;;;5.73;;
9288;SDS011;4683;50.864;12.086;2023-07-24T07:40:32;6.33;;;5.73;;
9288;SDS011;4683;50.864;12.086;2023-07-24T07:43:02;5.90;;;5.40;;
9288;SDS011;4683;50.864;12.086;2023-07-24T07:45:31;6.83;;;5.97;;
9288;SDS011;4683;50.864;12.086;2023-07-24T07:48:01;6.17;;;5.63;;
9288;SDS011;4683;50.864;12.086;2023-07-24T07:50:29;6.37;;;5.77;;
9288;SDS011;4683;50.864;12.086;2023-07-24T07:52:58;7.23;;;5.90;;
9288;SDS011;4683;50.864;12.086;2023-07-24T07:55:28;7.63;;;5.60;;
9288;SDS011;4683;50.864;12.086;2023-07-24T07:57:56;6.53;;;5.93;;
9288;SDS011;4683;50.864;12.086;2023-07-24T08:00:27;6.77;;;6.17;;
9288;SDS011;4683;50.864;12.086;2023-07-24T08:02:56;7.03;;;5.87;;
9288;SDS011;4683;50.864;12.086;2023-07-24T08:05:25;7.70;;;6.43;;
9288;SDS011;4683;50.864;12.086;2023-07-24T08:07:54;6.37;;;5.77;;
9288;SDS011;4683;50.864;12.086;2023-07-24T08:10:24;6.67;;;6.07;;
9288;SDS011;4683;50.864;12.086;2023-07-24T08:12:52;6.80;;;6.17;;
9288;SDS011;4683;50.864;12.086;2023-07-24T08:15:21;8.20;;;6.07;;
9288;SDS011;4683;50.864;12.086;2023-07-24T08:17:51;6.87;;;6.17;;
9288;SDS011;4683;50.864;12.086;2023-07-24T08:20:19;6.97;;;5.87;;
9288;SDS011;4683;50.864;12.086;2023-07-24T08:22:50;7.67;;;6.37;;
9288;SDS011;4683;50.864;12.086;2023-07-24T08:25:19;6.63;;;6.03;;
9288;SDS011;4683;50.864;12.086;2023-07-24T08:27:50;6.40;;;5.73;;
9288;SDS011;4683;50.864;12.086;2023-07-24T08:30:24;7.17;;;6.07;;
9288;SDS011;4683;50.864;12.086;2023-07-24T08:32:55;7.20;;;6.13;;
9288;SDS011;4683;50.864;12.086;2023-07-24T08:35:25;6.70;;;6.10;;
9288;SDS011;4683;50.864;12.086;2023-07-24T08:37:53;7.00;;;6.33;;
9288;SDS011;4683;50.864;12.086;2023-07-24T08:40:22;6.57;;;5.70;;
9288;SDS011;4683;50.864;12.086;2023-07-24T08:42:50;6.10;;;5.50;;
9288;SDS011;4683;50.864;12.086;2023-07-24T08:45:21;6.83;;;5.50;;
9288;SDS011;4683;50.864;12.086;2023-07-24T08:47:50;7.27;;;6.40;;
9288;SDS011;4683;50.864;12.086;2023-07-24T08:50:21;7.97;;;6.00;;
9288;SDS011;4683;50.864;12.086;2023-07-24T08:52:51;6.17;;;5.03;;
9288;SDS011;4683;50.864;12.086;2023-07-24T08:55:19;7.00;;;6.33;;
9288;SDS011;4683;50.864;12.086;2023-07-24T08:57:52;8.30;;;6.70;;
9288;SDS011;4683;50.864;12.086;2023-07-24T09:00:30;6.47;;;5.83;;
9288;SDS011;4683;50.864;12.086;2023-07-24T09:03:01;7.43;;;6.63;;
9288;SDS011;4683;50.864;12.086;2023-07-24T09:05:40;7.90;;;6.47;;
9288;SDS011;4683;50.864;12.086;2023-07-24T09:08:09;6.97;;;6.27;;
9288;SDS011;4683;50.864;12.086;2023-07-24T09:10:37;11.33;;;6.83;;
9288;SDS011;4683;50.864;12.086;2023-07-24T09:13:06;11.77;;;7.27;;
9288;SDS011;4683;50.864;12.086;2023-07-24T09:15:41;9.77;;;7.47;;
9288;SDS011;4683;50.864;12.086;2023-07-24T09:18:10;9.23;;;7.90;;
9288;SDS011;4683;50.864;12.086;2023-07-24T09:20:45;9.20;;;7.13;;
9288;SDS011;4683;50.864;12.086;2023-07-24T09:23:25;8.40;;;7.20;;
9288;SDS011;4683;50.864;12.086;2023-07-24T09:26:06;9.63;;;7.67;;
9288;SDS011;4683;50.864;12.086;2023-07-24T09:28:36;8.40;;;6.80;;
9288;SDS011;4683;50.864;12.086;2023-07-24T09:31:10;9.33;;;7.77;;
9288;SDS011;4683;50.864;12.086;2023-07-24T09:33:41;8.87;;;7.53;;
9288;SDS011;4683;50.864;12.086;2023-07-24T09:36:12;8.80;;;8.00;;
9288;SDS011;4683;50.864;12.086;2023-07-24T09:38:44;7.93;;;7.10;;
9288;SDS011;4683;50.864;12.086;2023-07-24T09:41:26;8.97;;;7.60;;
9288;SDS011;4683;50.864;12.086;2023-07-24T09:43:57;8.40;;;7.43;;
9288;SDS011;4683;50.864;12.086;2023-07-24T09:46:27;8.80;;;7.77;;
9288;SDS011;4683;50.864;12.086;2023-07-24T09:49:00;8.00;;;7.27;;
9288;SDS011;4683;50.864;12.086;2023-07-24T09:51:31;8.47;;;7.60;;
9288;SDS011;4683;50.864;12.086;2023-07-24T09:54:01;7.63;;;6.90;;
9288;SDS011;4683;50.864;12.086;2023-07-24T09:56:39;9.17;;;7.27;;
9288;SDS011;4683;50.864;12.086;2023-07-24T09:59:09;7.80;;;7.00;;
9288;SDS011;4683;50.864;12.086;2023-07-24T10:01:39;10.17;;;7.23;;
9288;SDS011;4683;50.864;12.086;2023-07-24T10:04:09;7.97;;;6.73;;
9288;SDS011;4683;50.864;12.086;2023-07-24T10:06:39;9.47;;;6.90;;
9288;SDS011;4683;50.864;12.086;2023-07-24T10:09:09;7.43;;;6.63;;
9288;SDS011;4683;50.864;12.086;2023-07-24T10:11:38;7.60;;;6.83;;
9288;SDS011;4683;50.864;12.086;2023-07-24T10:14:07;8.60;;;7.07;;
9288;SDS011;4683;50.864;12.086;2023-07-24T10:16:37;8.00;;;7.20;;
9288;SDS011;4683;50.864;12.086;2023-07-24T10:19:12;7.43;;;6.63;;
9288;SDS011;4683;50.864;12.086;2023-07-24T10:21:49;7.43;;;6.67;;
9288;SDS011;4683;50.864;12.086;2023-07-24T10:24:20;7.47;;;6.77;;
9288;SDS011;4683;50.864;12.086;2023-07-24T10:26:56;7.23;;;6.53;;
9288;SDS011;4683;50.864;12.086;2023-07-24T10:29:26;8.00;;;7.20;;
9288;SDS011;4683;50.864;12.086;2023-07-24T10:32:17;7.70;;;6.90;;
9288;SDS011;4683;50.864;12.086;2023-07-24T10:34:55;7.33;;;6.63;;
9288;SDS011;4683;50.864;12.086;2023-07-24T10:37:34;9.33;;;7.10;;
9288;SDS011;4683;50.864;12.086;2023-07-24T10:40:05;7.80;;;7.10;;
9288;SDS011;4683;50.864;12.086;2023-07-24T10:42:46;9.00;;;8.20;;
9288;SDS011;4683;50.864;12.086;2023-07-24T10:45:45;8.10;;;7.30;;
9288;SDS011;4683;50.864;12.086;2023-07-24T10:48:17;7.90;;;7.20;;
9288;SDS011;4683;50.864;12.086;2023-07-24T10:50:48;8.23;;;7.53;;
9288;SDS011;4683;50.864;12.086;2023-07-24T10:53:20;8.37;;;7.57;;
9288;SDS011;4683;50.864;12.086;2023-07-24T10:55:50;7.97;;;6.70;;
9288;SDS011;4683;50.864;12.086;2023-07-24T10:58:21;7.77;;;6.97;;
9288;SDS011;4683;50.864;12.086;2023-07-24T11:00:55;8.47;;;7.53;;
9288;SDS011;4683;50.864;12.086;2023-07-24T11:03:24;10.43;;;7.70;;
9288;SDS011;4683;50.864;12.086;2023-07-24T11:05:54;9.80;;;7.73;;
9288;SDS011;4683;50.864;12.086;2023-07-24T11:08:24;8.37;;;7.57;;
9288;SDS011;4683;50.864;12.086;2023-07-24T11:10:54;8.60;;;7.80;;
9288;SDS011;4683;50.864;12.086;2023-07-24T11:13:27;8.53;;;7.30;;
9288;SDS011;4683;50.864;12.086;2023-07-24T11:15:56;9.03;;;8.07;;
9288;SDS011;4683;50.864;12.086;2023-07-24T11:18:30;8.50;;;7.60;;
9288;SDS011;4683;50.864;12.086;2023-07-24T11:21:00;8.00;;;7.20;;
9288;SDS011;4683;50.864;12.086;2023-07-24T11:23:30;7.87;;;7.07;;
9288;SDS011;4683;50.864;12.086;2023-07-24T11:25:59;8.13;;;7.30;;
9288;SDS011;4683;50.864;12.086;2023-07-24T11:28:38;7.97;;;7.17;;
9288;SDS011;4683;50.864;12.086;2023-07-24T11:31:07;8.37;;;6.87;;
9288;SDS011;4683;50.864;12.086;2023-07-24T11:33:37;8.17;;;7.37;;
9288;SDS011;4683;50.864;12.086;2023-07-24T11:36:06;9.20;;;8.20;;
9288;SDS011;4683;50.864;12.086;2023-07-24T11:38:38;9.53;;;7.73;;
9288;SDS011;4683;50.864;12.086;2023-07-24T11:41:07;9.23;;;7.40;;
9288;SDS011;4683;50.864;12.086;2023-07-24T11:43:44;7.73;;;7.03;;
9288;SDS011;4683;50.864;12.086;2023-07-24T11:46:24;8.43;;;7.23;;
9288;SDS011;4683;50.864;12.086;2023-07-24T11:48:54;7.53;;;6.83;;
9288;SDS011;4683;50.864;12.086;2023-07-24T11:51:25;8.50;;;7.70;;
9288;SDS011;4683;50.864;12.086;2023-07-24T11:54:05;8.90;;;6.77;;
9288;SDS011;4683;50.864;12.086;2023-07-24T11:56:35;7.63;;;6.83;;
9288;SDS011;4683;50.864;12.086;2023-07-24T11:59:12;6.23;;;5.63;;
9288;SDS011;4683;50.864;12.086;2023-07-24T12:01:45;8.47;;;6.53;;
9288;SDS011;4683;50.864;12.086;2023-07-24T12:04:15;7.97;;;6.57;;
9288;SDS011;4683;50.864;12.086;2023-07-24T12:07:07;7.90;;;7.10;;
9288;SDS011;4683;50.864;12.086;2023-07-24T12:09:37;8.03;;;7.23;;
9288;SDS011;4683;50.864;12.086;2023-07-24T12:12:06;7.57;;;6.37;;
9288;SDS011;4683;50.864;12.086;2023-07-24T12:14:44;7.00;;;6.40;;
9288;SDS011;4683;50.864;12.086;2023-07-24T12:17:18;8.03;;;7.23;;
9288;SDS011;4683;50.864;12.086;2023-07-24T12:19:46;8.10;;;7.27;;
9288;SDS011;4683;50.864;12.086;2023-07-24T12:22:18;9.67;;;7.53;;
9288;SDS011;4683;50.864;12.086;2023-07-24T12:24:48;7.30;;;6.07;;
9288;SDS011;4683;50.864;12.086;2023-07-24T12:27:17;7.00;;;6.30;;
9288;SDS011;4683;50.864;12.086;2023-07-24T12:29:48;8.23;;;6.97;;
9288;SDS011;4683;50.864;12.086;2023-07-24T12:32:16;7.67;;;6.87;;
9288;SDS011;4683;50.864;12.086;2023-07-24T12:34:46;8.13;;;6.73;;
9288;SDS011;4683;50.864;12.086;2023-07-24T12:37:14;7.13;;;6.10;;
9288;SDS011;4683;50.864;12.086;2023-07-24T12:39:43;7.53;;;6.80;;
9288;SDS011;4683;50.864;12.086;2023-07-24T12:42:13;7.53;;;6.77;;
9288;SDS011;4683;50.864;12.086;2023-07-24T12:44:43;7.23;;;6.60;;
9288;SDS011;4683;50.864;12.086;2023-07-24T12:47:12;7.13;;;6.43;;
9288;SDS011;4683;50.864;12.086;2023-07-24T12:49:41;7.40;;;6.43;;
9288;SDS011;4683;50.864;12.086;2023-07-24T12:52:10;7.83;;;6.47;;
9288;SDS011;4683;50.864;12.086;2023-07-24T12:54:39;7.63;;;6.83;;
9288;SDS011;4683;50.864;12.086;2023-07-24T12:57:07;7.13;;;6.20;;
9288;SDS011;4683;50.864;12.086;2023-07-24T12:59:41;6.80;;;6.20;;
9288;SDS011;4683;50.864;12.086;2023-07-24T13:02:11;6.57;;;5.73;;
9288;SDS011;4683;50.864;12.086;2023-07-24T13:04:45;6.13;;;5.53;;
9288;SDS011;4683;50.864;12.086;2023-07-24T13:07:14;6.60;;;5.70;;
9288;SDS011;4683;50.864;12.086;2023-07-24T13:09:42;7.57;;;6.57;;
9288;SDS011;4683;50.864;12.086;2023-07-24T13:12:11;5.43;;;4.93;;
9288;SDS011;4683;50.864;12.086;2023-07-24T13:14:42;6.93;;;6.03;;
9288;SDS011;4683;50.864;12.086;2023-07-24T13:17:11;7.60;;;6.60;;
9288;SDS011;4683;50.864;12.086;2023-07-24T13:19:40;6.10;;;5.50;;
9288;SDS011;4683;50.864;12.086;2023-07-24T13:22:10;6.37;;;5.70;;
9288;SDS011;4683;50.864;12.086;2023-07-24T13:24:39;6.07;;;5.47;;
9288;SDS011;4683;50.864;12.086;2023-07-24T13:27:09;6.97;;;6.27;;
9288;SDS011;4683;50.864;12.086;2023-07-24T13:29:38;5.97;;;5.43;;
9288;SDS011;4683;50.864;12.086;2023-07-24T13:32:08;6.53;;;5.67;;
9288;SDS011;4683;50.864;12.086;2023-07-24T13:34:37;7.50;;;5.50;;
9288;SDS011;4683;50.864;12.086;2023-07-24T13:37:06;7.17;;;5.90;;
9288;SDS011;4683;50.864;12.086;2023-07-24T13:39:35;6.03;;;5.43;;
9288;SDS011;4683;50.864;12.086;2023-07-24T13:42:04;7.30;;;6.60;;
9288;SDS011;4683;50.864;12.086;2023-07-24T13:44:33;6.70;;;6.07;;
9288;SDS011;4683;50.864;12.086;2023-07-24T13:47:03;6.90;;;5.97;;
9288;SDS011;4683;50.864;12.086;2023-07-24T13:49:34;6.60;;;6.00;;
9288;SDS011;4683;50.864;12.086;2023-07-24T13:52:04;5.47;;;4.97;;
9288;SDS011;4683;50.864;12.086;2023-07-24T13:54:33;7.30;;;6.40;;
9288;SDS011;4683;50.864;12.086;2023-07-24T13:57:01;8.07;;;7.30;;
9288;SDS011;4683;50.864;12.086;2023-07-24T13:59:33;6.73;;;6.13;;
9288;SDS011;4683;50.864;12.086;2023-07-24T14:02:04;7.67;;;6.87;;
9288;SDS011;4683;50.864;12.086;2023-07-24T14:04:33;7.67;;;6.97;;
9288;SDS011;4683;50.864;12.086;2023-07-24T14:07:03;7.67;;;6.87;;
9288;SDS011;4683;50.864;12.086;2023-07-24T14:09:31;7.50;;;6.80;;
9288;SDS011;4683;50.864;12.086;2023-07-24T14:12:00;7.77;;;6.97;;
9288;SDS011;4683;50.864;12.086;2023-07-24T14:14:29;7.80;;;7.10;;
9288;SDS011;4683;50.864;12.086;2023-07-24T14:16:57;7.20;;;6.50;;
9288;SDS011;4683;50.864;12.086;2023-07-24T14:19:25;8.73;;;6.27;;
9288;SDS011;4683;50.864;12.086;2023-07-24T14:21:55;7.60;;;6.90;;
9288;SDS011;4683;50.864;12.086;2023-07-24T14:24:25;7.43;;;6.83;;
9288;SDS011;4683;50.864;12.086;2023-07-24T14:26:53;7.47;;;6.50;;
9288;SDS011;4683;50.864;12.086;2023-07-24T14:29:23;8.27;;;6.37;;
9288;SDS011;4683;50.864;12.086;2023-07-24T14:31:51;7.80;;;7.03;;
9288;SDS011;4683;50.864;12.086;2023-07-24T14:34:19;8.33;;;7.50;;
9288;SDS011;4683;50.864;12.086;2023-07-24T14:36:47;7.67;;;6.47;;
9288;SDS011;4683;50.864;12.086;2023-07-24T14:39:17;7.07;;;5.67;;
9288;SDS011;4683;50.864;12.086;2023-07-24T14:41:46;7.83;;;7.13;;
9288;SDS011;4683;50.864;12.086;2023-07-24T14:44:14;7.73;;;6.37;;
9288;SDS011;4683;50.864;12.086;2023-07-24T14:46:47;5.67;;;5.03;;
9288;SDS011;4683;50.864;12.086;2023-07-24T14:49:22;6.93;;;6.33;;
9288;SDS011;4683;50.864;12.086;2023-07-24T14:51:50;8.27;;;7.20;;
9288;SDS011;4683;50.864;12.086;2023-07-24T14:54:21;7.50;;;6.67;;
9288;SDS011;4683;50.864;12.086;2023-07-24T14:56:50;8.20;;;7.40;;
9288;SDS011;4683;50.864;12.086;2023-07-24T14:59:19;8.20;;;7.40;;
9288;SDS011;4683;50.864;12.086;2023-07-24T15:01:48;7.67;;;6.97;;
9288;SDS011;4683;50.864;12.086;2023-07-24T15:04:16;7.93;;;7.23;;
9288;SDS011;4683;50.864;12.086;2023-07-24T15:06:45;7.47;;;6.77;;
9288;SDS011;4683;50.864;12.086;2023-07-24T15:09:15;7.70;;;7.00;;
9288;SDS011;4683;50.864;12.086;2023-07-24T15:11:45;8.20;;;7.40;;
9288;SDS011;4683;50.864;12.086;2023-07-24T15:14:13;5.10;;;4.60;;
9288;SDS011;4683;50.864;12.086;2023-07-24T15:16:42;8.10;;;7.40;;
9288;SDS011;4683;50.864;12.086;2023-07-24T15:19:12;7.37;;;6.67;;
9288;SDS011;4683;50.864;12.086;2023-07-24T15:21:49;8.30;;;7.50;;
9288;SDS011;4683;50.864;12.086;2023-07-24T15:24:27;8.53;;;6.50;;
9288;SDS011;4683;50.864;12.086;2023-07-24T15:27:00;5.83;;;5.33;;
9288;SDS011;4683;50.864;12.086;2023-07-24T15:29:34;7.53;;;6.83;;